sensor_id;sensor_type;location;lat;lon;timestamp;pressure;altitude;pressure_sealevel;temperature;humidity
73633;BME280;61927;50.080;14.418;2023-02-02T00:01:36;99169.25;;;3.61;65.48
73633;BME280;61927;50.080;14.418;2023-02-02T00:04:02;99173.53;;;3.63;64.86
73633;BME280;61927;50.080;14.418;2023-02-02T00:06:30;99178.66;;;3.66;65.83
73633;BME280;61927;50.080;14.418;2023-02-02T00:08:57;99180.66;;;3.60;65.39
73633;BME280;61927;50.080;14.418;2023-02-02T00:11:24;99181.63;;;3.57;65.02
73633;BME280;61927;50.080;14.418;2023-02-02T00:13:49;99178.81;;;3.62;63.79
73633;BME280;61927;50.080;14.418;2023-02-02T00:18:54;99183.66;;;3.72;64.45
73633;BME280;61927;50.080;14.418;2023-02-02T00:21:21;99185.25;;;3.76;63.93
73633;BME280;61927;50.080;14.418;2023-02-02T00:23:47;99184.34;;;3.77;64.36
73633;BME280;61927;50.080;14.418;2023-02-02T00:26:12;99178.34;;;3.74;63.03
73633;BME280;61927;50.080;14.418;2023-02-02T00:28:38;99189.16;;;3.66;63.53
73633;BME280;61927;50.080;14.418;2023-02-02T00:31:04;99177.97;;;3.61;64.34
73633;BME280;61927;50.080;14.418;2023-02-02T00:33:29;99179.00;;;3.57;64.64
73633;BME280;61927;50.080;14.418;2023-02-02T00:35:55;99183.56;;;3.52;64.24
73633;BME280;61927;50.080;14.418;2023-02-02T00:38:21;99187.16;;;3.49;64.80
73633;BME280;61927;50.080;14.418;2023-02-02T00:40:46;99185.34;;;3.51;64.49
73633;BME280;61927;50.080;14.418;2023-02-02T00:43:12;99183.50;;;3.53;64.33
73633;BME280;61927;50.080;14.418;2023-02-02T00:45:38;99181.50;;;3.60;64.40
73633;BME280;61927;50.080;14.418;2023-02-02T00:48:04;99187.56;;;3.62;63.61
73633;BME280;61927;50.080;14.418;2023-02-02T00:50:30;99197.69;;;3.71;63.83
73633;BME280;61927;50.080;14.418;2023-02-02T00:52:56;99194.84;;;3.77;63.54
73633;BME280;61927;50.080;14.418;2023-02-02T00:55:25;99197.59;;;3.74;63.38
73633;BME280;61927;50.080;14.418;2023-02-02T00:57:51;99197.53;;;3.76;63.19
73633;BME280;61927;50.080;14.418;2023-02-02T01:00:21;99200.72;;;3.84;64.27
73633;BME280;61927;50.080;14.418;2023-02-02T01:02:52;99189.13;;;3.89;63.55
73633;BME280;61927;50.080;14.418;2023-02-02T01:05:19;99196.94;;;3.91;64.08
73633;BME280;61927;50.080;14.418;2023-02-02T01:07:45;99198.53;;;3.95;62.80
73633;BME280;61927;50.080;14.418;2023-02-02T01:10:14;99184.59;;;3.93;61.94
73633;BME280;61927;50.080;14.418;2023-02-02T01:12:41;99191.69;;;3.91;62.73
73633;BME280;61927;50.080;14.418;2023-02-02T01:15:07;99195.16;;;3.92;62.86
73633;BME280;61927;50.080;14.418;2023-02-02T01:17:33;99196.56;;;4.00;62.16
73633;BME280;61927;50.080;14.418;2023-02-02T01:19:58;99192.78;;;4.07;61.52
73633;BME280;61927;50.080;14.418;2023-02-02T01:22:24;99191.69;;;4.13;60.97
73633;BME280;61927;50.080;14.418;2023-02-02T01:24:50;99185.59;;;4.12;60.57
73633;BME280;61927;50.080;14.418;2023-02-02T01:27:16;99185.84;;;4.06;60.92
73633;BME280;61927;50.080;14.418;2023-02-02T01:29:42;99189.75;;;4.18;60.39
73633;BME280;61927;50.080;14.418;2023-02-02T01:32:07;99186.19;;;4.19;60.99
73633;BME280;61927;50.080;14.418;2023-02-02T01:34:33;99186.00;;;4.24;61.65
73633;BME280;61927;50.080;14.418;2023-02-02T01:36:59;99187.53;;;4.29;62.36
73633;BME280;61927;50.080;14.418;2023-02-02T01:39:25;99190.09;;;4.31;62.26
73633;BME280;61927;50.080;14.418;2023-02-02T01:41:50;99190.94;;;4.31;62.72
73633;BME280;61927;50.080;14.418;2023-02-02T01:47:21;99197.44;;;4.22;62.81
73633;BME280;61927;50.080;14.418;2023-02-02T01:49:48;99190.72;;;4.15;61.87
73633;BME280;61927;50.080;14.418;2023-02-02T01:52:16;99198.34;;;4.00;62.41
73633;BME280;61927;50.080;14.418;2023-02-02T01:54:51;99191.69;;;3.91;62.81
73633;BME280;61927;50.080;14.418;2023-02-02T01:57:30;99196.06;;;3.91;63.40
73633;BME280;61927;50.080;14.418;2023-02-02T01:59:59;99195.34;;;3.87;63.69
73633;BME280;61927;50.080;14.418;2023-02-02T02:02:28;99202.47;;;3.83;63.90
73633;BME280;61927;50.080;14.418;2023-02-02T02:04:55;99199.91;;;3.82;63.95
73633;BME280;61927;50.080;14.418;2023-02-02T02:07:21;99207.97;;;3.77;64.06
73633;BME280;61927;50.080;14.418;2023-02-02T02:09:47;99214.81;;;3.81;63.51
73633;BME280;61927;50.080;14.418;2023-02-02T02:12:14;99203.28;;;3.85;63.58
73633;BME280;61927;50.080;14.418;2023-02-02T02:14:45;99198.69;;;3.91;63.59
73633;BME280;61927;50.080;14.418;2023-02-02T02:17:55;99194.38;;;3.89;63.27
73633;BME280;61927;50.080;14.418;2023-02-02T02:20:33;99196.81;;;3.94;63.34
73633;BME280;61927;50.080;14.418;2023-02-02T02:23:43;99198.22;;;4.03;62.90
73633;BME280;61927;50.080;14.418;2023-02-02T02:29:41;99192.78;;;4.07;63.31
73633;BME280;61927;50.080;14.418;2023-02-02T02:37:28;99188.53;;;4.05;63.49
73633;BME280;61927;50.080;14.418;2023-02-02T02:42:30;99187.47;;;4.09;63.65
73633;BME280;61927;50.080;14.418;2023-02-02T02:45:00;99185.84;;;4.06;64.27
73633;BME280;61927;50.080;14.418;2023-02-02T02:47:29;99186.81;;;4.04;63.27
73633;BME280;61927;50.080;14.418;2023-02-02T02:49:55;99191.13;;;4.05;64.15
73633;BME280;61927;50.080;14.418;2023-02-02T02:52:20;99182.41;;;4.04;64.17
73633;BME280;61927;50.080;14.418;2023-02-02T02:54:46;99187.78;;;4.01;64.68
73633;BME280;61927;50.080;14.418;2023-02-02T02:57:30;99182.22;;;3.87;64.41
73633;BME280;61927;50.080;14.418;2023-02-02T03:11:12;99187.03;;;3.52;64.49
73633;BME280;61927;50.080;14.418;2023-02-02T03:13:39;99183.56;;;3.52;63.84
73633;BME280;61927;50.080;14.418;2023-02-02T03:16:05;99176.59;;;3.51;63.28
73633;BME280;61927;50.080;14.418;2023-02-02T03:18:32;99182.81;;;3.48;63.85
73633;BME280;61927;50.080;14.418;2023-02-02T03:20:58;99187.31;;;3.45;63.85
73633;BME280;61927;50.080;14.418;2023-02-02T03:23:24;99183.00;;;3.44;63.77
73633;BME280;61927;50.080;14.418;2023-02-02T03:25:49;99185.72;;;3.41;63.64
73633;BME280;61927;50.080;14.418;2023-02-02T03:28:16;99197.03;;;3.43;63.53
73633;BME280;61927;50.080;14.418;2023-02-02T03:30:43;99190.81;;;3.45;63.66
73633;BME280;61927;50.080;14.418;2023-02-02T03:33:11;99190.75;;;3.47;63.49
73633;BME280;61927;50.080;14.418;2023-02-02T03:35:37;99191.84;;;3.41;63.85
73633;BME280;61927;50.080;14.418;2023-02-02T03:38:03;99195.53;;;3.36;63.55
73633;BME280;61927;50.080;14.418;2023-02-02T03:40:28;99199.81;;;3.38;63.21
73633;BME280;61927;50.080;14.418;2023-02-02T03:42:54;99197.31;;;3.35;63.41
73633;BME280;61927;50.080;14.418;2023-02-02T03:45:20;99193.81;;;3.35;63.18
73633;BME280;61927;50.080;14.418;2023-02-02T03:47:46;99190.41;;;3.33;63.33
73633;BME280;61927;50.080;14.418;2023-02-02T03:50:12;99189.72;;;3.28;62.92
73633;BME280;61927;50.080;14.418;2023-02-02T03:52:38;99193.31;;;3.25;63.32
73633;BME280;61927;50.080;14.418;2023-02-02T03:55:05;99199.47;;;3.24;63.29
73633;BME280;61927;50.080;14.418;2023-02-02T03:57:31;99203.09;;;3.20;63.28
73633;BME280;61927;50.080;14.418;2023-02-02T03:59:56;99202.19;;;3.21;62.85
73633;BME280;61927;50.080;14.418;2023-02-02T04:02:22;99199.63;;;3.19;62.80
73633;BME280;61927;50.080;14.418;2023-02-02T04:04:47;99203.97;;;3.20;62.74
73633;BME280;61927;50.080;14.418;2023-02-02T04:07:13;99201.13;;;3.27;63.58
73633;BME280;61927;50.080;14.418;2023-02-02T04:09:39;99204.59;;;3.27;63.22
73633;BME280;61927;50.080;14.418;2023-02-02T04:12:04;99208.66;;;3.36;62.68
73633;BME280;61927;50.080;14.418;2023-02-02T04:14:30;99212.53;;;3.49;62.11
73633;BME280;61927;50.080;14.418;2023-02-02T04:16:56;99210.53;;;3.55;61.96
73633;BME280;61927;50.080;14.418;2023-02-02T04:19:21;99212.03;;;3.63;61.64
73633;BME280;61927;50.080;14.418;2023-02-02T04:21:47;99203.97;;;3.67;62.10
73633;BME280;61927;50.080;14.418;2023-02-02T04:24:13;99207.50;;;3.66;62.05
73633;BME280;61927;50.080;14.418;2023-02-02T04:26:40;99209.44;;;3.61;61.80
73633;BME280;61927;50.080;14.418;2023-02-02T04:29:06;99209.44;;;3.61;61.55
73633;BME280;61927;50.080;14.418;2023-02-02T04:31:32;99217.31;;;3.61;62.25
73633;BME280;61927;50.080;14.418;2023-02-02T04:33:58;99213.78;;;3.62;62.14
73633;BME280;61927;50.080;14.418;2023-02-02T04:36:24;99215.44;;;3.65;61.43
73633;BME280;61927;50.080;14.418;2023-02-02T04:38:53;99219.84;;;3.64;61.33
73633;BME280;61927;50.080;14.418;2023-02-02T04:41:20;99225.94;;;3.65;62.36
73633;BME280;61927;50.080;14.418;2023-02-02T04:43:46;99233.69;;;3.68;61.26
73633;BME280;61927;50.080;14.418;2023-02-02T04:46:12;99247.84;;;3.64;60.17
73633;BME280;61927;50.080;14.418;2023-02-02T04:48:38;99237.97;;;3.70;60.44
73633;BME280;61927;50.080;14.418;2023-02-02T04:51:11;99248.25;;;3.76;59.57
73633;BME280;61927;50.080;14.418;2023-02-02T04:53:38;99245.38;;;3.82;59.59
73633;BME280;61927;50.080;14.418;2023-02-02T04:56:15;99246.88;;;3.89;59.43
73633;BME280;61927;50.080;14.418;2023-02-02T04:58:42;99251.03;;;3.95;59.06
73633;BME280;61927;50.080;14.418;2023-02-02T05:01:15;99243.94;;;3.97;57.95
73633;BME280;61927;50.080;14.418;2023-02-02T05:03:42;99249.13;;;3.99;57.96
73633;BME280;61927;50.080;14.418;2023-02-02T05:06:08;99249.09;;;4.00;57.53
73633;BME280;61927;50.080;14.418;2023-02-02T05:08:34;99257.00;;;3.99;58.18
73633;BME280;61927;50.080;14.418;2023-02-02T05:11:16;99261.63;;;3.92;56.75
73633;BME280;61927;50.080;14.418;2023-02-02T05:13:50;99257.00;;;3.99;56.80
73633;BME280;61927;50.080;14.418;2023-02-02T05:16:16;99261.22;;;4.03;57.57
73633;BME280;61927;50.080;14.418;2023-02-02T05:18:50;99262.03;;;4.05;57.47
73633;BME280;61927;50.080;14.418;2023-02-02T05:21:16;99269.22;;;4.00;56.91
73633;BME280;61927;50.080;14.418;2023-02-02T05:23:42;99284.47;;;3.90;57.29
73633;BME280;61927;50.080;14.418;2023-02-02T05:26:12;99267.63;;;3.96;57.83
73633;BME280;61927;50.080;14.418;2023-02-02T05:28:40;99275.28;;;4.02;56.86
73633;BME280;61927;50.080;14.418;2023-02-02T05:31:07;99282.22;;;4.03;57.36
73633;BME280;61927;50.080;14.418;2023-02-02T05:33:33;99274.97;;;4.09;56.95
73633;BME280;61927;50.080;14.418;2023-02-02T05:35:59;99294.09;;;4.13;57.00
73633;BME280;61927;50.080;14.418;2023-02-02T05:38:25;99281.88;;;4.12;57.17
73633;BME280;61927;50.080;14.418;2023-02-02T05:40:50;99307.34;;;4.10;57.33
73633;BME280;61927;50.080;14.418;2023-02-02T05:43:16;99299.34;;;4.13;57.14
73633;BME280;61927;50.080;14.418;2023-02-02T05:45:41;99305.28;;;4.18;57.20
73633;BME280;61927;50.080;14.418;2023-02-02T05:48:10;99310.41;;;4.21;57.05
73633;BME280;61927;50.080;14.418;2023-02-02T05:50:38;99324.22;;;4.26;56.72
73633;BME280;61927;50.080;14.418;2023-02-02T05:53:04;99303.97;;;4.30;56.66
73633;BME280;61927;50.080;14.418;2023-02-02T05:55:30;99302.06;;;4.33;56.83
73633;BME280;61927;50.080;14.418;2023-02-02T05:57:56;99311.91;;;4.28;56.86
73633;BME280;61927;50.080;14.418;2023-02-02T06:00:21;99321.59;;;4.26;57.07
73633;BME280;61927;50.080;14.418;2023-02-02T06:02:47;99319.84;;;4.27;56.89
73633;BME280;61927;50.080;14.418;2023-02-02T06:05:13;99307.44;;;4.30;57.27
73633;BME280;61927;50.080;14.418;2023-02-02T06:07:38;99317.16;;;4.28;57.58
73633;BME280;61927;50.080;14.418;2023-02-02T06:10:04;99324.22;;;4.26;57.82
73633;BME280;61927;50.080;14.418;2023-02-02T06:12:30;99329.44;;;4.28;57.66
73633;BME280;61927;50.080;14.418;2023-02-02T06:14:56;99330.22;;;4.30;58.05
73633;BME280;61927;50.080;14.418;2023-02-02T06:17:21;99329.25;;;4.32;57.75
73633;BME280;61927;50.080;14.418;2023-02-02T06:19:49;99326.56;;;4.34;57.78
73633;BME280;61927;50.080;14.418;2023-02-02T06:22:15;99332.72;;;4.33;58.11
73633;BME280;61927;50.080;14.418;2023-02-02T06:24:40;99357.28;;;4.32;57.94
73633;BME280;61927;50.080;14.418;2023-02-02T06:27:06;99364.44;;;4.28;57.97
73633;BME280;61927;50.080;14.418;2023-02-02T06:29:31;99336.44;;;4.27;58.40
73633;BME280;61927;50.080;14.418;2023-02-02T06:31:57;99347.63;;;4.32;58.34
73633;BME280;61927;50.080;14.418;2023-02-02T06:34:25;99342.44;;;4.31;58.63
73633;BME280;61927;50.080;14.418;2023-02-02T06:36:51;99363.28;;;4.35;58.41
73633;BME280;61927;50.080;14.418;2023-02-02T06:39:24;99344.84;;;4.37;58.26
73633;BME280;61927;50.080;14.418;2023-02-02T06:41:52;99353.56;;;4.37;58.41
73633;BME280;61927;50.080;14.418;2023-02-02T06:44:17;99373.72;;;4.37;58.74
73633;BME280;61927;50.080;14.418;2023-02-02T06:46:45;99369.38;;;4.36;58.37
73633;BME280;61927;50.080;14.418;2023-02-02T06:49:11;99379.72;;;4.40;58.63
73633;BME280;61927;50.080;14.418;2023-02-02T06:51:37;99381.31;;;4.44;58.47
73633;BME280;61927;50.080;14.418;2023-02-02T06:54:03;99383.78;;;4.49;58.47
73633;BME280;61927;50.080;14.418;2023-02-02T06:56:29;99387.31;;;4.48;58.22
73633;BME280;61927;50.080;14.418;2023-02-02T06:58:55;99385.47;;;4.50;58.33
73633;BME280;61927;50.080;14.418;2023-02-02T07:01:21;99395.13;;;4.49;58.73
73633;BME280;61927;50.080;14.418;2023-02-02T07:03:47;99383.78;;;4.49;59.24
73633;BME280;61927;50.080;14.418;2023-02-02T07:06:20;99380.97;;;4.53;58.33
73633;BME280;61927;50.080;14.418;2023-02-02T07:08:47;99391.00;;;4.66;58.57
73633;BME280;61927;50.080;14.418;2023-02-02T07:11:15;99390.44;;;4.58;58.47
73633;BME280;61927;50.080;14.418;2023-02-02T07:13:41;99391.66;;;4.49;59.48
73633;BME280;61927;50.080;14.418;2023-02-02T07:16:07;99387.25;;;4.49;59.09
73633;BME280;61927;50.080;14.418;2023-02-02T07:18:34;99388.78;;;4.55;59.03
73633;BME280;61927;50.080;14.418;2023-02-02T07:21:02;99403.75;;;4.53;58.82
73633;BME280;61927;50.080;14.418;2023-02-02T07:23:29;99410.00;;;4.50;59.10
73633;BME280;61927;50.080;14.418;2023-02-02T07:26:08;99411.66;;;4.53;59.43
73633;BME280;61927;50.080;14.418;2023-02-02T07:28:34;99412.63;;;4.50;59.56
73633;BME280;61927;50.080;14.418;2023-02-02T07:31:12;99404.00;;;4.47;59.66
73633;BME280;61927;50.080;14.418;2023-02-02T07:33:40;99424.84;;;4.51;59.49
73633;BME280;61927;50.080;14.418;2023-02-02T07:36:06;99420.56;;;4.49;59.50
73633;BME280;61927;50.080;14.418;2023-02-02T07:38:32;99418.09;;;4.44;58.92
73633;BME280;61927;50.080;14.418;2023-02-02T07:41:00;99413.75;;;4.43;59.03
73633;BME280;61927;50.080;14.418;2023-02-02T07:43:31;99405.66;;;4.49;59.32
73633;BME280;61927;50.080;14.418;2023-02-02T07:46:21;99412.38;;;4.57;59.33
73633;BME280;61927;50.080;14.418;2023-02-02T07:48:47;99422.66;;;4.63;58.72
73633;BME280;61927;50.080;14.418;2023-02-02T07:51:14;99405.91;;;4.65;59.34
73633;BME280;61927;50.080;14.418;2023-02-02T07:53:45;99405.97;;;4.64;59.24
73633;BME280;61927;50.080;14.418;2023-02-02T07:56:20;99402.06;;;4.74;58.84
73633;BME280;61927;50.080;14.418;2023-02-02T07:58:46;99410.53;;;4.82;59.02
73633;BME280;61927;50.080;14.418;2023-02-02T08:01:14;99416.56;;;4.84;58.46
73633;BME280;61927;50.080;14.418;2023-02-02T08:03:41;99415.53;;;4.88;58.38
73633;BME280;61927;50.080;14.418;2023-02-02T08:06:18;99415.31;;;4.94;59.13
73633;BME280;61927;50.080;14.418;2023-02-02T08:08:45;99411.13;;;4.89;57.69
73633;BME280;61927;50.080;14.418;2023-02-02T08:11:12;99420.50;;;4.96;58.23
73633;BME280;61927;50.080;14.418;2023-02-02T08:13:41;99423.00;;;4.99;58.11
73633;BME280;61927;50.080;14.418;2023-02-02T08:16:08;99416.03;;;4.98;58.25
73633;BME280;61927;50.080;14.418;2023-02-02T08:18:34;99426.56;;;4.98;57.29
73633;BME280;61927;50.080;14.418;2023-02-02T08:21:01;99437.53;;;4.85;58.94
73633;BME280;61927;50.080;14.418;2023-02-02T08:23:27;99435.03;;;4.82;58.15
73633;BME280;61927;50.080;14.418;2023-02-02T08:26:03;99443.91;;;4.80;58.34
73633;BME280;61927;50.080;14.418;2023-02-02T08:28:29;99445.56;;;4.82;58.57
73633;BME280;61927;50.080;14.418;2023-02-02T08:30:55;99447.81;;;4.92;58.04
73633;BME280;61927;50.080;14.418;2023-02-02T08:33:20;99452.09;;;4.94;58.40
73633;BME280;61927;50.080;14.418;2023-02-02T08:35:46;99456.34;;;4.98;58.15
73633;BME280;61927;50.080;14.418;2023-02-02T08:38:12;99460.84;;;4.95;58.74
73633;BME280;61927;50.080;14.418;2023-02-02T08:40:37;99465.25;;;4.94;58.19
73633;BME280;61927;50.080;14.418;2023-02-02T08:43:03;99468.25;;;4.85;58.69
73633;BME280;61927;50.080;14.418;2023-02-02T08:45:30;99467.31;;;4.86;59.12
73633;BME280;61927;50.080;14.418;2023-02-02T08:47:56;99473.09;;;4.96;58.88
73633;BME280;61927;50.080;14.418;2023-02-02T08:50:21;99487.88;;;4.98;58.80
73633;BME280;61927;50.080;14.418;2023-02-02T08:52:47;99471.31;;;4.96;58.54
73633;BME280;61927;50.080;14.418;2023-02-02T08:55:13;99465.69;;;5.05;58.77
73633;BME280;61927;50.080;14.418;2023-02-02T08:57:40;99459.53;;;5.06;58.03
73633;BME280;61927;50.080;14.418;2023-02-02T09:00:06;99471.44;;;5.15;57.82
73633;BME280;61927;50.080;14.418;2023-02-02T09:02:33;99482.94;;;5.12;57.91
73633;BME280;61927;50.080;14.418;2023-02-02T09:04:58;99459.03;;;5.18;57.54
73633;BME280;61927;50.080;14.418;2023-02-02T09:07:24;99466.63;;;5.26;57.65
73633;BME280;61927;50.080;14.418;2023-02-02T09:09:50;99478.13;;;5.24;57.76
73633;BME280;61927;50.080;14.418;2023-02-02T09:12:17;99477.38;;;5.20;57.93
73633;BME280;61927;50.080;14.418;2023-02-02T09:14:42;99486.63;;;5.08;58.39
73633;BME280;61927;50.080;14.418;2023-02-02T09:17:08;99476.03;;;5.10;58.43
73633;BME280;61927;50.080;14.418;2023-02-02T09:19:34;99487.19;;;5.16;58.41
73633;BME280;61927;50.080;14.418;2023-02-02T09:21:59;99484.41;;;5.19;58.35
73633;BME280;61927;50.080;14.418;2023-02-02T09:24:25;99479.09;;;5.21;58.14
73633;BME280;61927;50.080;14.418;2023-02-02T09:26:51;99486.88;;;5.24;58.58
73633;BME280;61927;50.080;14.418;2023-02-02T09:29:16;99487.06;;;5.19;57.88
73633;BME280;61927;50.080;14.418;2023-02-02T09:31:42;99501.75;;;5.25;58.41
73633;BME280;61927;50.080;14.418;2023-02-02T09:34:10;99491.28;;;5.24;57.95
73633;BME280;61927;50.080;14.418;2023-02-02T09:36:38;99497.63;;;5.18;58.18
73633;BME280;61927;50.080;14.418;2023-02-02T09:39:04;99493.78;;;5.27;57.85
73633;BME280;61927;50.080;14.418;2023-02-02T09:47:22;99517.22;;;5.33;57.97
73633;BME280;61927;50.080;14.418;2023-02-02T09:49:54;99505.91;;;5.31;57.78
73633;BME280;61927;50.080;14.418;2023-02-02T09:54:57;99516.63;;;5.48;57.52
73633;BME280;61927;50.080;14.418;2023-02-02T09:57:54;99512.69;;;5.58;57.72
73633;BME280;61927;50.080;14.418;2023-02-02T10:00:31;99518.28;;;5.50;57.55
73633;BME280;61927;50.080;14.418;2023-02-02T10:06:02;99523.16;;;5.60;58.04
73633;BME280;61927;50.080;14.418;2023-02-02T10:08:40;99515.69;;;5.49;57.98
73633;BME280;61927;50.080;14.418;2023-02-02T10:13:44;99531.59;;;5.46;58.82
73633;BME280;61927;50.080;14.418;2023-02-02T10:16:15;99528.31;;;5.41;58.36
73633;BME280;61927;50.080;14.418;2023-02-02T10:18:48;99524.44;;;5.28;59.07
73633;BME280;61927;50.080;14.418;2023-02-02T10:21:49;99536.69;;;5.29;58.91
73633;BME280;61927;50.080;14.418;2023-02-02T10:24:23;99526.66;;;5.38;59.03
73633;BME280;61927;50.080;14.418;2023-02-02T10:26:53;99528.66;;;5.54;58.65
73633;BME280;61927;50.080;14.418;2023-02-02T10:32:02;99526.28;;;5.47;58.15
73633;BME280;61927;50.080;14.418;2023-02-02T10:44:36;99533.91;;;5.75;57.95
73633;BME280;61927;50.080;14.418;2023-02-02T10:47:11;99519.28;;;5.68;57.09
73633;BME280;61927;50.080;14.418;2023-02-02T10:49:40;99528.47;;;5.80;56.25
73633;BME280;61927;50.080;14.418;2023-02-02T11:03:03;99523.38;;;5.75;56.59
73633;BME280;61927;50.080;14.418;2023-02-02T11:05:33;99528.00;;;5.92;55.07
73633;BME280;61927;50.080;14.418;2023-02-02T11:08:56;99516.16;;;6.02;55.43
73633;BME280;61927;50.080;14.418;2023-02-02T11:11:33;99539.03;;;6.22;54.99
73633;BME280;61927;50.080;14.418;2023-02-02T11:14:28;99525.00;;;6.22;53.88
73633;BME280;61927;50.080;14.418;2023-02-02T11:17:21;99529.28;;;6.24;54.10
73633;BME280;61927;50.080;14.418;2023-02-02T11:19:48;99528.16;;;6.30;54.17
73633;BME280;61927;50.080;14.418;2023-02-02T11:22:37;99539.69;;;6.27;53.96
73633;BME280;61927;50.080;14.418;2023-02-02T11:25:23;99535.84;;;6.14;54.41
73633;BME280;61927;50.080;14.418;2023-02-02T11:27:50;99541.84;;;6.18;54.16
73633;BME280;61927;50.080;14.418;2023-02-02T11:30:35;99537.75;;;6.10;54.78
73633;BME280;61927;50.080;14.418;2023-02-02T11:33:26;99536.78;;;6.13;54.30
73633;BME280;61927;50.080;14.418;2023-02-02T11:36:04;99509.56;;;5.92;54.32
73633;BME280;61927;50.080;14.418;2023-02-02T11:38:37;99512.41;;;5.86;55.41
73633;BME280;61927;50.080;14.418;2023-02-02T11:41:05;99515.84;;;5.88;55.37
73633;BME280;61927;50.080;14.418;2023-02-02T11:43:47;99517.06;;;6.01;55.63
73633;BME280;61927;50.080;14.418;2023-02-02T11:46:24;99517.22;;;6.19;55.13
73633;BME280;61927;50.080;14.418;2023-02-02T11:48:59;99527.69;;;6.20;53.82
73633;BME280;61927;50.080;14.418;2023-02-02T11:51:27;99538.88;;;6.25;53.55
73633;BME280;61927;50.080;14.418;2023-02-02T11:56:39;99514.72;;;6.36;53.49
73633;BME280;61927;50.080;14.418;2023-02-02T11:59:46;99545.06;;;6.44;53.01
73633;BME280;61927;50.080;14.418;2023-02-02T12:02:28;99523.25;;;6.41;52.49
73633;BME280;61927;50.080;14.418;2023-02-02T12:05:12;99529.41;;;6.41;52.82
73633;BME280;61927;50.080;14.418;2023-02-02T12:07:40;99534.59;;;6.43;52.74
73633;BME280;61927;50.080;14.418;2023-02-02T12:18:44;99542.09;;;6.11;54.59
73633;BME280;61927;50.080;14.418;2023-02-02T12:26:33;99531.22;;;5.99;55.65
73633;BME280;61927;50.080;14.418;2023-02-02T12:31:59;99528.16;;;5.88;55.54
73633;BME280;61927;50.080;14.418;2023-02-02T12:40:06;99540.78;;;6.22;55.24
73633;BME280;61927;50.080;14.418;2023-02-02T12:43:22;99539.41;;;6.33;53.54
73633;BME280;61927;50.080;14.418;2023-02-02T12:46:32;99533.75;;;6.22;53.41
73633;BME280;61927;50.080;14.418;2023-02-02T13:00:35;99545.81;;;6.48;52.99
73633;BME280;61927;50.080;14.418;2023-02-02T13:03:29;99530.38;;;6.39;52.98
73633;BME280;61927;50.080;14.418;2023-02-02T13:09:16;99533.69;;;6.44;53.15
73633;BME280;61927;50.080;14.418;2023-02-02T13:11:50;99537.81;;;6.50;52.82
73633;BME280;61927;50.080;14.418;2023-02-02T13:14:27;99548.19;;;6.34;53.04
73633;BME280;61927;50.080;14.418;2023-02-02T13:16:58;99544.03;;;6.28;53.82
73633;BME280;61927;50.080;14.418;2023-02-02T13:19:50;99547.00;;;6.21;53.65
73633;BME280;61927;50.080;14.418;2023-02-02T13:22:23;99554.97;;;6.19;54.12
73633;BME280;61927;50.080;14.418;2023-02-02T13:24:53;99566.28;;;6.21;54.11
73633;BME280;61927;50.080;14.418;2023-02-02T13:27:20;99557.72;;;6.16;54.20
73633;BME280;61927;50.080;14.418;2023-02-02T13:32:38;99581.31;;;6.19;53.70
73633;BME280;61927;50.080;14.418;2023-02-02T13:35:14;99569.13;;;6.17;54.19
73633;BME280;61927;50.080;14.418;2023-02-02T13:37:48;99569.31;;;6.12;54.15
73633;BME280;61927;50.080;14.418;2023-02-02T13:42:53;99563.94;;;5.93;54.08
73633;BME280;61927;50.080;14.418;2023-02-02T13:45:29;99577.00;;;5.96;54.65
73633;BME280;61927;50.080;14.418;2023-02-02T13:48:32;99571.66;;;5.98;53.79
73633;BME280;61927;50.080;14.418;2023-02-02T13:56:52;99595.56;;;5.93;53.88
73633;BME280;61927;50.080;14.418;2023-02-02T14:02:21;99602.72;;;5.90;53.77
73633;BME280;61927;50.080;14.418;2023-02-02T14:05:02;99589.81;;;5.82;53.85
73633;BME280;61927;50.080;14.418;2023-02-02T14:07:39;99596.88;;;5.81;54.30
73633;BME280;61927;50.080;14.418;2023-02-02T14:10:21;99595.81;;;5.86;53.80
73633;BME280;61927;50.080;14.418;2023-02-02T14:12:48;99599.97;;;5.93;53.71
73633;BME280;61927;50.080;14.418;2023-02-02T14:15:13;99605.34;;;5.90;53.31
73633;BME280;61927;50.080;14.418;2023-02-02T14:20:44;99620.72;;;6.00;53.93
73633;BME280;61927;50.080;14.418;2023-02-02T14:26:19;99634.41;;;5.87;54.49
73633;BME280;61927;50.080;14.418;2023-02-02T14:37:57;99655.59;;;5.38;56.04
73633;BME280;61927;50.080;14.418;2023-02-02T14:43:33;99658.84;;;5.45;55.67
73633;BME280;61927;50.080;14.418;2023-02-02T14:48:39;99667.03;;;5.61;56.35
73633;BME280;61927;50.080;14.418;2023-02-02T14:51:20;99669.41;;;5.67;55.75
73633;BME280;61927;50.080;14.418;2023-02-02T14:53:49;99677.25;;;5.68;56.09
73633;BME280;61927;50.080;14.418;2023-02-02T14:56:16;99694.81;;;5.68;56.23
73633;BME280;61927;50.080;14.418;2023-02-02T14:58:53;99693.22;;;5.64;56.03
73633;BME280;61927;50.080;14.418;2023-02-02T15:14:40;99718.13;;;5.55;57.80
73633;BME280;61927;50.080;14.418;2023-02-02T15:20:57;99733.56;;;5.41;58.12
73633;BME280;61927;50.080;14.418;2023-02-02T15:23:39;99737.06;;;5.41;58.02
73633;BME280;61927;50.080;14.418;2023-02-02T15:26:17;99736.13;;;5.42;57.96
73633;BME280;61927;50.080;14.418;2023-02-02T15:28:51;99743.63;;;5.53;57.48
73633;BME280;61927;50.080;14.418;2023-02-02T15:31:41;99742.84;;;5.51;57.34
73633;BME280;61927;50.080;14.418;2023-02-02T15:34:17;99756.75;;;5.55;58.25
73633;BME280;61927;50.080;14.418;2023-02-02T15:36:51;99757.72;;;5.52;58.06
73633;BME280;61927;50.080;14.418;2023-02-02T15:41:53;99754.56;;;5.42;58.39
73633;BME280;61927;50.080;14.418;2023-02-02T15:44:40;99773.09;;;5.39;58.17
73633;BME280;61927;50.080;14.418;2023-02-02T15:47:13;99794.63;;;5.26;58.74
73633;BME280;61927;50.080;14.418;2023-02-02T15:49:41;99789.03;;;5.10;59.61
73633;BME280;61927;50.080;14.418;2023-02-02T15:52:13;99802.59;;;4.98;60.16
73633;BME280;61927;50.080;14.418;2023-02-02T15:55:00;99802.78;;;4.92;60.04
73633;BME280;61927;50.080;14.418;2023-02-02T15:57:28;99815.25;;;4.86;60.10